Rui Barbosa

Chefscout - Vitoria Guimaraes
3 Dez 2028
Sonntag
Verarbeitung

Persönlichkeit

Anpassungsfähigkeit (7) Ehrgeiz (16) Kontroverse (9) Loyalität (12) Druck (1) Professionalität (15) Fairness (11) Temperament (8)

Profil

Trainerstil Demokratisch
Lizenz Kontinentale B
Entschlossenheit 12
Menschenführung 5
Motivation 8
Disziplin 9
Arbeitszufriedenheit
100%
Ermüdung
0%
Rolle Chefscout
Gehalt 33.7K p/W
Vertrag 14.03.2029

Leistung

Verhalten Gut
Trainingseffektivität
48%
Spielerentwicklung
50%
Verletzungsprävention
50%
Taktische Umsetzung
35%

Letzte Ereignisse

Nahm an einer Scouting-Besprechung teil jetzt
Empfahl ein Transferziel jetzt
Empfahl ein Transferziel jetzt
Empfahl ein Transferziel jetzt
Empfahl ein Transferziel jetzt
Empfahl ein Transferziel jetzt
Empfahl ein Transferziel 7T her
Spiel beobachtet 7T her

Aktuell beobachtet

201
Spieler Verein Status Fähigkeit Vertrauen Beobachtet Zuletzt beobachtet Letzte Stimme
Élohim Kaboré Hammarby Aktiv 129 / 125 40% 2 18.11.2028 -
Chimobi Igwilo Rangers International Aktiv 109 / 96 40% 2 18.11.2028 -
David Nogueira Juventude Aktiv 93 / 107 40% 2 17.11.2028 -
Ryan Kavuma-McQueen Accrington Stanley Aktiv 135 / 132 40% 1 17.11.2028 -
Mateus Mané Burnley Aktiv 148 / 153 40% 2 15.11.2028 -
Mason Melia Huddersfield Town Aktiv 105 / 119 40% 1 15.11.2028 -
Siyabonga Mabena Bidvest Wits Aktiv 121 / 132 40% 2 14.11.2028 -
Mikey Moore Stockport County Aktiv 140 / 145 40% 1 13.11.2028 -
Ryan Francisco Palmeiras Aktiv 118 / 129 40% 8 11.11.2028 -
Luca Williams-Barnett Walsall Aktiv 123 / 133 40% 1 11.11.2028 -
Robinio Vaz Modena Aktiv 126 / 131 40% 2 10.11.2028 -
Luka Andrade Montevideo City Torque Aktiv 112 / 111 40% 4 10.11.2028 -
Babis Kostoulas Oxford United Aktiv 151 / 152 40% 2 09.11.2028 -
Luca Fletcher Ipswich Town Aktiv 117 / 116 40% 1 09.11.2028 -
Markus Wæhler Lillestrom Aktiv 97 / 119 40% 2 08.11.2028 -
Mateus Mide Porto Aktiv 115 / 120 40% 1 08.11.2028 -
James Moreno Cortulua Aktiv 86 / 96 40% 1 07.11.2028 -
Alan Torterolo Defensor Sporting Aktiv 103 / 101 40% 1 07.11.2028 -
Julian Hall Real Salt Lake Aktiv 106 / 117 40% 4 29.10.2028 -
Kparobo Arierhi Lillestrom Aktiv 115 / 116 40% 2 29.10.2028 -
Francisco Souza Silva Feirense Aktiv 115 / 121 40% 2 27.10.2028 -
Daniel Johan Skaarud Sandefjord Aktiv 105 / 110 40% 1 27.10.2028 -
Rodrigo Dudok Racing Aktiv 103 / 104 40% 2 25.10.2028 -
Felipe Karabulut Gimnasia y Tiro Aktiv 100 / 108 40% 1 24.10.2028 -
Leenhan Romero Iquique Aktiv 90 / 93 40% 1 24.10.2028 -
Idris Ajiya Nasarawa United Aktiv 94 / 90 40% 2 19.10.2028 -
Franco Pinoni Alvarado Aktiv 98 / 99 40% 1 19.10.2028 -
Ramiro Jara Racing Aktiv 96 / 96 40% 2 18.10.2028 -
Mateo Alcoba Albion Aktiv 86 / 93 40% 1 18.10.2028 -
Ruben Ramos LA Galaxy Aktiv 103 / 110 40% 1 15.10.2028 -
Luis Yanes Real Cartagena Aktiv 94 / 98 40% 1 15.10.2028 -
Erick Belé Sport Recife Aktiv 114 / 115 40% 1 12.10.2028 -
Yuri Leles Santos Aktiv 112 / 118 40% 1 12.10.2028 -
Kermit Dolly SuperSport United Aktiv 96 / 113 40% 1 06.10.2028 -
Facundo Martínez Montevideo City Torque Aktiv 87 / 94 40% 1 03.10.2028 -
Nick Oyekunle Crawley Town Aktiv 109 / 122 40% 1 02.10.2028 -
Seymour Reid New York City Aktiv 109 / 107 40% 1 02.10.2028 -
Andrés Dávila Independiente Medellin Aktiv 106 / 103 40% 1 08.09.2028 -
Caio Wesley Fortaleza Aktiv 99 / 96 40% 1 05.09.2028 -
Matías Córdoba Colón Aktiv 104 / 114 40% 1 05.09.2028 -
Harlley Grêmio Aktiv 102 / 103 40% 1 04.09.2028 -
Abdourahman Badamosi Paide Aktiv 95 / 95 40% 1 21.08.2028 -
Tyler Fletcher Rotherham United Aktiv 116 / 122 40% 2 07.08.2028 -
Anílson Pacos de Ferreira Aktiv 109 / 109 58% 1 03.07.2028 -
Iván Barbero Oliveirense Aktiv 103 / 116 58% 1 19.06.2028 -
Ryan McAidoo Oldham Athletic Aktiv 125 / 128 40% 1 02.06.2028 -
André Miranda Porto Aktiv 119 / 120 40% 1 02.06.2028 -
Kiani Inge Groningen Aktiv 114 / 122 40% 3 26.05.2028 -
Jan Bürger Northampton Town Aktiv 116 / 123 40% 10 24.05.2028 -
Jorthy Mokio ADO Den Haag Aktiv 140 / 140 40% 2 23.05.2028 -
Riquelme Thompson-Jones Accrington Stanley Aktiv 117 / 117 40% 3 23.05.2028 -
Martim Cunha Porto Aktiv 107 / 112 40% 7 22.05.2028 -
Thijs Kraaijeveld USM Alger Aktiv 111 / 123 40% 2 19.05.2028 -
Lucas Høgsberg RC Strasbourg Aktiv 142 / 144 40% 2 19.05.2028 -
João Simões Sporting CP Aktiv 141 / 139 40% 9 17.05.2028 -
Giovanni Leoni Lincoln City Aktiv 150 / 143 40% 2 17.05.2028 -
Andrea Cogoni Cosenza Aktiv 110 / 115 40% 3 16.05.2028 -
Trey Nyoni Rotherham United Aktiv 130 / 148 40% 1 14.05.2028 -
Konta Ismaily Aktiv 85 / 107 40% 1 13.05.2028 -
Lamine Bèye Portimonense Aktiv 120 / 115 40% 4 11.05.2028 -
Pablo Lúcio St. Gallen Aktiv 102 / 119 40% 4 04.05.2028 -
Andrija Bulatović Chamois Niortais Aktiv 131 / 129 40% 3 30.04.2028 -
Federico Matarán Giana Erminio Aktiv 100 / 111 40% 1 30.04.2028 -
Josh Nichols Oldham Athletic Aktiv 113 / 127 40% 7 28.04.2028 -
Tobiáš Pališčák Zlin Aktiv 102 / 104 40% 1 20.04.2028 -
Andrey Ivlev Nizhniy Novgorod Aktiv 96 / 123 40% 2 19.04.2028 -
Claudio Martey Pianese Aktiv 87 / 90 40% 1 19.04.2028 -
Kamaldeen Atiemo Wa All Stars Aktiv 90 / 113 40% 1 17.04.2028 -
Honest Ahanor Atalanta Aktiv 127 / 144 40% 2 15.04.2028 -
Bernardo Lima Porto Aktiv 115 / 114 40% 5 14.04.2028 -
Daniel Banjaqui Benfica Aktiv 130 / 131 67% 10 11.04.2028 -
Christos Mouzakitis Hull City Aktiv 129 / 144 40% 4 07.04.2028 -
Kirill Kistenev Botev Vratsa Aktiv 97 / 92 40% 2 07.04.2028 -
Josh Acheampong Everton Aktiv 136 / 147 40% 5 24.03.2028 -
Makar Vysochenko Spartak Moscow Aktiv 77 / 98 40% 1 11.03.2028 -
Matias Siltanen Malmo FF Aktiv 129 / 135 40% 2 10.03.2028 -
Esquerdinha Notts County Aktiv 119 / 126 40% 2 31.01.2028 -
Souza Tottenham Aktiv 120 / 137 40% 1 31.01.2028 -
Nicolas Sport Recife Aktiv 107 / 112 40% 2 17.01.2028 -
João Carvalho Estoril Praia Aktiv 147 / 131 58% 1 07.01.2028 -
Mao Hosoya Santos Aktiv 134 / 135 90% 1 01.01.2028 -
Caleb Yirenkyi Coventry City Aktiv 149 / 151 40% 10 31.12.2027 -
Victor Hernandez Santa Fe Aktiv 122 / 126 40% 5 13.12.2027 -
Gonçalo Oliveira Benfica Aktiv 112 / 122 67% 5 11.12.2027 Befürworten
Gideon Manaseh Ikorodu City Aktiv 88 / 96 40% 1 09.12.2027 -
Bastien Meupiyou Alverca Aktiv 121 / 131 40% 2 08.12.2027 -
Mohamed Moussa Koïta Mathare United Aktiv 95 / 97 40% 2 06.12.2027 -
Onyeuche Ujunwa Ikorodu City Aktiv 72 / 90 40% 3 06.12.2027 -
Nazareno Roselli Defensa y Justicia Aktiv 109 / 118 40% 2 05.12.2027 -
Matteo Pérez Vinlöf Dinamo Zagreb Aktiv 130 / 138 40% 1 02.12.2027 -
Igor Felisberto Sport Recife Aktiv 102 / 112 40% 1 02.12.2027 -
Ayden Heaven Portsmouth Aktiv 140 / 152 40% 2 24.11.2027 -
Daniel Idoko Ikorodu City Aktiv 84 / 93 40% 1 22.11.2027 -
Joel Ezra Enyimba Aktiv 96 / 103 40% 1 19.11.2027 -
Colin Guske Orlando City Aktiv 89 / 101 40% 2 17.11.2027 -
Ignacio Fernández Boston River Aktiv 91 / 98 40% 2 17.11.2027 -
Tiago Freitas Benfica Aktiv 111 / 120 67% 4 13.11.2027 Befürworten
Jonny Shore New York City Aktiv 105 / 104 40% 1 03.11.2027 -
Yury Oyarzo Racing Aktiv 84 / 98 40% 1 28.10.2027 -
Agustín Obregón River Plate Aktiv 103 / 121 40% 1 27.10.2027 -
Archie Gray Southampton Aktiv 151 / 153 40% 3 26.10.2027 -
Nahuel Leivas Montevideo City Torque Aktiv 110 / 110 40% 1 19.10.2027 -
Esteban de Lima Tacuarembo Aktiv 85 / 97 40% 2 18.10.2027 -
Diego Vargas Universidad de Concepcion Aktiv 101 / 98 40% 2 14.10.2027 -
Godwin Oham Warri Wolves Aktiv 71 / 95 40% 1 06.10.2027 -
Victor Froholdt Porto Aktiv 143 / 155 40% 6 07.09.2027 -
Mbekezeli Mbokazi Chicago Fire Aktiv 134 / 133 40% 1 07.09.2027 -
Erick Sánchez RC Lens Aktiv 139 / 139 68% 1 01.06.2027 Befürworten
Mohamed-Ali Cho Hull City Aktiv 136 / 133 40% 2 30.05.2027 -
Jenson Jones Walsall Aktiv 95 / 98 40% 5 29.05.2027 -
Charlie Gray Fleetwood Town Aktiv 100 / 99 40% 1 29.05.2027 -
Thiago Brentford Aktiv 143 / 146 40% 3 26.05.2027 -
Josh Coburn Millwall Aktiv 120 / 123 40% 1 26.05.2027 -
Riyad Idrissi Cagliari Aktiv 133 / 129 40% 1 25.05.2027 -
Mees Rijks Bristol Rovers Aktiv 116 / 107 40% 2 22.05.2027 -
Bade Aluko Leicester City Aktiv 124 / 116 40% 1 22.05.2027 -
Cheveyo Tsawa Club Brugge Aktiv 107 / 122 40% 6 18.05.2027 -
Aune Heggebø West Bromwich Albion Aktiv 129 / 128 40% 2 17.05.2027 -
Malik Mothersille Stockport County Aktiv 117 / 116 40% 1 17.05.2027 -
Sorriso Famalicao Aktiv 127 / 130 40% 5 14.05.2027 -
Enzo Koffi Olympique de Marseille Aktiv 118 / 111 40% 1 14.05.2027 -
Edwin Asamoah Berekum Chelsea Aktiv 72 / 79 40% 2 11.05.2027 -
Ezra Mayers West Ham United Aktiv 125 / 124 40% 1 11.05.2027 -
Riley Owen Stevenage Aktiv 107 / 113 40% 1 08.05.2027 -
Pape Diong Westerlo Aktiv 103 / 118 40% 3 05.05.2027 -
Jørgen Strand Larsen Brighton Aktiv 137 / 138 40% 2 04.05.2027 -
Alessandro Zoboletti Sambenedettese Aktiv 91 / 100 40% 2 02.05.2027 -
Zane Albarus Shrewsbury Town Aktiv 105 / 95 40% 3 30.04.2027 -
Samuele di Benedetto Twente Aktiv 105 / 123 40% 1 27.04.2027 -
Rivaldo Mkhize Black Aces Aktiv 62 / 80 40% 2 25.04.2027 -
Yassine Khalifi Charleroi Aktiv 113 / 105 40% 2 22.04.2027 -
David Ozoh Derby County Aktiv 129 / 129 40% 3 22.04.2027 -
Rodrigo Muniz Fulham Aktiv 148 / 135 40% 1 22.04.2027 -
Pau Víctor Braga Aktiv 145 / 139 40% 13 21.04.2027 -
Henrique Silva Santa Clara Aktiv 110 / 116 40% 2 19.04.2027 -
Georginio Rutter Brighton Aktiv 146 / 153 40% 2 11.04.2027 -
Eddie Nketiah Crystal Palace Aktiv 137 / 140 40% 1 11.04.2027 -
Giacomo Raspadori Atalanta Aktiv 144 / 150 40% 1 10.04.2027 -
Tyrese Campbell Sheffield United Aktiv 137 / 129 40% 2 08.04.2027 -
Yousef Salech Cardiff City Aktiv 126 / 125 40% 2 30.03.2027 -
Larson Palmeiras Aktiv 111 / 112 40% 1 26.03.2027 -
Miguel Figueiredo Benfica Aktiv 104 / 114 40% 3 25.03.2027 -
James Dornelly Peterborough United Aktiv 98 / 111 40% 1 25.03.2027 -
Vasco Santos Oliveirense Aktiv 80 / 98 40% 1 24.03.2027 -
Emirhan Başyiğit Sivasspor Aktiv 118 / 110 40% 1 23.03.2027 -
Cemran Dansin Orlando Pirates Aktiv 92 / 124 40% 1 07.03.2027 -
Richard Koné Queens Park Rangers Aktiv 114 / 125 40% 1 03.03.2027 -
Nico O'Reilly Manchester City Aktiv 155 / 153 40% 1 28.02.2027 -
Henrique Araújo Casa Pia Aktiv 116 / 125 40% 1 26.02.2027 -
Olivier Leroux Mouscron Aktiv 86 / 97 40% 2 19.02.2027 -
Ivo Mammini Beitar Jerusalem Aktiv 133 / 116 40% 2 18.02.2027 -
Tamble Monteiro Rio Ave Aktiv 121 / 121 40% 2 18.02.2027 -
Cam Bragg West Ham United Aktiv 113 / 123 40% 2 15.02.2027 -
Amine Boukamir Charleroi Aktiv 88 / 101 40% 1 07.02.2027 -
Nicolas Jackson Aston Villa Aktiv 157 / 153 40% 5 06.02.2027 -
Lautaro Vargas Unión de Santa Fe Aktiv 111 / 126 40% 1 26.01.2027 -
Nicolò Tresoldi Club Brugge Aktiv 132 / 136 40% 1 24.01.2027 -
Martín Tejón Maritimo Aktiv 127 / 117 40% 1 23.01.2027 -
Oh Hyeon-Gyu Besiktas Aktiv 135 / 125 40% 1 22.01.2027 -
Lorent Tolaj Plymouth Argyle Aktiv 130 / 117 40% 1 21.01.2027 -
Geny Sporting CP Aktiv 159 / 146 40% 4 11.01.2027 -
Luiz Henrique AS Roma Aktiv 142 / 143 68% 1 01.01.2027 Befürworten
Sampson Dweh Mallorca Aktiv 133 / 134 66% 1 01.01.2027 Befürworten
Roberto Alvarado Borussia Mönchengladbach Aktiv 139 / 139 66% 1 01.01.2027 Befürworten
Fran Navarro Braga Aktiv 127 / 128 40% 1 31.12.2026 -
Lorougnon Gohi Académico de Viseu Aktiv 126 / 118 40% 1 23.12.2026 -
Tristan Degreef Anderlecht Aktiv 130 / 128 40% 1 22.12.2026 -
Benjamin Kanurić Grodig Aktiv 114 / 110 40% 3 18.12.2026 -
Mario Dorgeles Braga Aktiv 145 / 139 40% 2 18.12.2026 -
Carlos Forbs Club Brugge Aktiv 135 / 126 40% 1 10.12.2026 -
Jordan Holsgrove Estoril Praia Aktiv 142 / 130 40% 1 10.12.2026 -
Brian Rodríguez Club America Aktiv 134 / 129 40% 1 05.12.2026 -
Alex Scott Bournemouth Aktiv 145 / 153 40% 1 04.12.2026 -
Carlos Álvarez Club America Aktiv 134 / 145 40% 2 03.12.2026 -
Callum Hudson-Odoi Nottingham Forest Aktiv 158 / 153 40% 1 03.12.2026 -
Boubacar Kamara Aston Villa Aktiv 172 / 164 40% 2 01.12.2026 -
Yeremy Pino Crystal Palace Aktiv 149 / 155 40% 1 30.11.2026 -
Oswin Appollis Orlando Pirates Aktiv 132 / 130 40% 1 29.11.2026 -
Vinícius Lopes Santa Clara Aktiv 126 / 126 40% 1 28.11.2026 -
Jadon Sancho Manchester United Aktiv 147 / 155 40% 1 19.11.2026 -
Bongani Zungu Ajax Cape Town Aktiv 140 / 118 40% 1 17.11.2026 -
Óscar Mingueza Crystal Palace Aktiv 148 / 145 40% 1 16.11.2026 -
Soma Anzai FC Tokyo Aktiv 100 / 109 40% 1 13.11.2026 -
Marcus Edwards Burnley Aktiv 129 / 134 40% 1 13.11.2026 -
Omar Campos Cruz Azul Aktiv 126 / 119 40% 1 11.11.2026 -
Santiago Montiel Independiente Aktiv 131 / 126 40% 1 07.11.2026 -
Sorba Thomas Stoke City Aktiv 140 / 130 40% 1 06.11.2026 -
Kevin Zenón Boca Juniors Aktiv 129 / 122 40% 3 04.11.2026 -
William Gomes Porto Aktiv 143 / 139 40% 1 04.11.2026 -
Derensili Sanches Fernandes Huddersfield Town Aktiv 125 / 126 40% 1 03.11.2026 -
Yanis Begraoui Estoril Praia Aktiv 143 / 132 40% 1 02.11.2026 -
Mason Mount Manchester United Aktiv 140 / 152 40% 1 25.10.2026 -
Aarón Molinas Defensa y Justicia Aktiv 128 / 128 40% 1 25.10.2026 -
Savinho Tottenham Aktiv 166 / 155 40% 2 24.10.2026 -
Pedro Porro Tottenham Aktiv 134 / 141 40% 1 20.10.2026 -
Martín Ojeda Orlando City Aktiv 125 / 139 40% 1 18.10.2026 -
Lee Hyun-Ju Arouca Aktiv 115 / 121 40% 1 14.10.2026 -
James Garner Everton Aktiv 158 / 153 40% 1 08.10.2026 -
Alejandro Piedrahita Deportivo Pereira Aktiv 114 / 128 40% 1 07.10.2026 -
Amine Adli Bournemouth Aktiv 133 / 140 40% 1 05.10.2026 -
Brian White Vancouver Whitecaps Aktiv 108 / 119 40% 1 18.08.2026 -